sensor_id;sensor_type;location;lat;lon;timestamp;temperature;humidity
17489;DHT22;8861;52.644;4.734;2024-01-15T00:01:00;3.30;99.90
17489;DHT22;8861;52.644;4.734;2024-01-15T00:03:40;3.30;99.90
17489;DHT22;8861;52.644;4.734;2024-01-15T00:06:07;3.30;99.90
17489;DHT22;8861;52.644;4.734;2024-01-15T00:08:34;3.20;99.90
17489;DHT22;8861;52.644;4.734;2024-01-15T00:11:01;3.20;99.90
17489;DHT22;8861;52.644;4.734;2024-01-15T00:13:28;3.10;99.90
17489;DHT22;8861;52.644;4.734;2024-01-15T00:15:55;3.10;99.90
17489;DHT22;8861;52.644;4.734;2024-01-15T00:18:22;3.00;99.90
17489;DHT22;8861;52.644;4.734;2024-01-15T00:20:51;3.00;99.90
17489;DHT22;8861;52.644;4.734;2024-01-15T00:23:17;3.00;99.90
17489;DHT22;8861;52.644;4.734;2024-01-15T00:25:44;3.00;99.90
17489;DHT22;8861;52.644;4.734;2024-01-15T00:28:11;3.00;99.90
17489;DHT22;8861;52.644;4.734;2024-01-15T00:30:38;3.00;99.90
17489;DHT22;8861;52.644;4.734;2024-01-15T00:33:05;3.10;99.90
17489;DHT22;8861;52.644;4.734;2024-01-15T00:35:32;3.20;99.90
17489;DHT22;8861;52.644;4.734;2024-01-15T00:38:01;3.30;99.90
17489;DHT22;8861;52.644;4.734;2024-01-15T00:40:28;3.40;99.90
17489;DHT22;8861;52.644;4.734;2024-01-15T00:42:55;3.40;99.90
17489;DHT22;8861;52.644;4.734;2024-01-15T00:45:22;3.50;99.90
17489;DHT22;8861;52.644;4.734;2024-01-15T00:47:49;3.50;99.90
17489;DHT22;8861;52.644;4.734;2024-01-15T00:50:16;3.60;99.90
17489;DHT22;8861;52.644;4.734;2024-01-15T00:52:43;3.70;99.90
17489;DHT22;8861;52.644;4.734;2024-01-15T00:55:12;3.80;99.90
17489;DHT22;8861;52.644;4.734;2024-01-15T00:57:40;3.90;99.90
17489;DHT22;8861;52.644;4.734;2024-01-15T01:00:07;3.90;99.90
17489;DHT22;8861;52.644;4.734;2024-01-15T01:02:34;3.90;99.90
17489;DHT22;8861;52.644;4.734;2024-01-15T01:05:01;3.90;99.90
17489;DHT22;8861;52.644;4.734;2024-01-15T01:07:29;3.90;99.90
17489;DHT22;8861;52.644;4.734;2024-01-15T01:09:56;3.90;99.90
17489;DHT22;8861;52.644;4.734;2024-01-15T01:12:24;3.90;99.90
17489;DHT22;8861;52.644;4.734;2024-01-15T01:14:51;3.80;99.90
17489;DHT22;8861;52.644;4.734;2024-01-15T01:17:18;3.70;99.90
17489;DHT22;8861;52.644;4.734;2024-01-15T01:19:45;3.70;99.90
17489;DHT22;8861;52.644;4.734;2024-01-15T01:22:12;3.60;99.90
17489;DHT22;8861;52.644;4.734;2024-01-15T01:24:39;3.60;99.90
17489;DHT22;8861;52.644;4.734;2024-01-15T01:27:06;3.50;99.90
17489;DHT22;8861;52.644;4.734;2024-01-15T01:29:35;3.50;99.90
17489;DHT22;8861;52.644;4.734;2024-01-15T01:32:02;3.50;99.90
17489;DHT22;8861;52.644;4.734;2024-01-15T01:34:29;3.50;99.90
17489;DHT22;8861;52.644;4.734;2024-01-15T01:36:55;3.50;99.90
17489;DHT22;8861;52.644;4.734;2024-01-15T01:39:22;3.50;99.90
17489;DHT22;8861;52.644;4.734;2024-01-15T01:41:49;3.40;99.90
17489;DHT22;8861;52.644;4.734;2024-01-15T01:44:16;3.40;99.90
17489;DHT22;8861;52.644;4.734;2024-01-15T01:46:45;3.40;99.90
17489;DHT22;8861;52.644;4.734;2024-01-15T01:49:12;3.50;99.90
17489;DHT22;8861;52.644;4.734;2024-01-15T01:51:39;3.50;99.90
17489;DHT22;8861;52.644;4.734;2024-01-15T01:54:06;3.60;99.90
17489;DHT22;8861;52.644;4.734;2024-01-15T01:56:35;3.60;99.90
17489;DHT22;8861;52.644;4.734;2024-01-15T01:59:02;3.50;99.90
17489;DHT22;8861;52.644;4.734;2024-01-15T02:01:31;3.50;99.90
17489;DHT22;8861;52.644;4.734;2024-01-15T02:04:00;3.40;99.90
17489;DHT22;8861;52.644;4.734;2024-01-15T02:06:27;3.20;99.90
17489;DHT22;8861;52.644;4.734;2024-01-15T02:08:54;3.10;99.90
17489;DHT22;8861;52.644;4.734;2024-01-15T02:11:21;2.80;99.90
17489;DHT22;8861;52.644;4.734;2024-01-15T02:13:48;2.60;99.90
17489;DHT22;8861;52.644;4.734;2024-01-15T02:16:15;2.60;99.90
17489;DHT22;8861;52.644;4.734;2024-01-15T02:18:45;2.50;99.90
17489;DHT22;8861;52.644;4.734;2024-01-15T02:21:14;2.30;99.90
17489;DHT22;8861;52.644;4.734;2024-01-15T02:23:43;2.10;99.90
17489;DHT22;8861;52.644;4.734;2024-01-15T02:26:10;2.10;99.90
17489;DHT22;8861;52.644;4.734;2024-01-15T02:28:37;2.10;99.90
17489;DHT22;8861;52.644;4.734;2024-01-15T02:31:04;2.10;99.90
17489;DHT22;8861;52.644;4.734;2024-01-15T02:33:31;2.20;99.90
17489;DHT22;8861;52.644;4.734;2024-01-15T02:35:58;2.20;99.90
17489;DHT22;8861;52.644;4.734;2024-01-15T02:38:25;2.20;99.90
17489;DHT22;8861;52.644;4.734;2024-01-15T02:40:54;2.20;99.90
17489;DHT22;8861;52.644;4.734;2024-01-15T02:43:21;2.20;99.90
17489;DHT22;8861;52.644;4.734;2024-01-15T02:45:48;2.30;99.90
17489;DHT22;8861;52.644;4.734;2024-01-15T02:48:15;2.50;99.90
17489;DHT22;8861;52.644;4.734;2024-01-15T02:50:42;2.60;99.90
17489;DHT22;8861;52.644;4.734;2024-01-15T02:53:09;2.70;99.90
17489;DHT22;8861;52.644;4.734;2024-01-15T02:55:36;2.80;99.90
17489;DHT22;8861;52.644;4.734;2024-01-15T02:58:05;2.90;99.90
17489;DHT22;8861;52.644;4.734;2024-01-15T03:00:32;2.90;99.90
17489;DHT22;8861;52.644;4.734;2024-01-15T03:02:59;2.90;99.90
17489;DHT22;8861;52.644;4.734;2024-01-15T03:05:26;2.90;99.90
17489;DHT22;8861;52.644;4.734;2024-01-15T03:07:53;3.00;99.90
17489;DHT22;8861;52.644;4.734;2024-01-15T03:10:21;3.00;99.90
17489;DHT22;8861;52.644;4.734;2024-01-15T03:12:48;3.00;99.90
17489;DHT22;8861;52.644;4.734;2024-01-15T03:15:17;3.10;99.90
17489;DHT22;8861;52.644;4.734;2024-01-15T03:17:45;3.10;99.90
17489;DHT22;8861;52.644;4.734;2024-01-15T03:20:12;3.10;99.90
17489;DHT22;8861;52.644;4.734;2024-01-15T03:22:39;3.20;99.90
17489;DHT22;8861;52.644;4.734;2024-01-15T03:25:06;3.20;99.90
17489;DHT22;8861;52.644;4.734;2024-01-15T03:27:34;3.20;99.90
17489;DHT22;8861;52.644;4.734;2024-01-15T03:30:01;3.20;99.90
17489;DHT22;8861;52.644;4.734;2024-01-15T03:32:30;3.20;99.90
17489;DHT22;8861;52.644;4.734;2024-01-15T03:34:57;3.10;99.90
17489;DHT22;8861;52.644;4.734;2024-01-15T03:37:24;3.10;99.90
17489;DHT22;8861;52.644;4.734;2024-01-15T03:39:51;3.10;99.90
17489;DHT22;8861;52.644;4.734;2024-01-15T03:42:18;3.20;99.90
17489;DHT22;8861;52.644;4.734;2024-01-15T03:44:45;3.20;99.90
17489;DHT22;8861;52.644;4.734;2024-01-15T03:47:12;3.20;99.90
17489;DHT22;8861;52.644;4.734;2024-01-15T03:49:41;3.20;99.90
17489;DHT22;8861;52.644;4.734;2024-01-15T03:52:08;3.20;99.90
17489;DHT22;8861;52.644;4.734;2024-01-15T03:54:35;3.30;99.90
17489;DHT22;8861;52.644;4.734;2024-01-15T03:57:03;3.30;99.90
17489;DHT22;8861;52.644;4.734;2024-01-15T03:59:30;3.30;99.90
17489;DHT22;8861;52.644;4.734;2024-01-15T04:01:57;3.30;99.90
17489;DHT22;8861;52.644;4.734;2024-01-15T04:04:24;3.40;99.90
17489;DHT22;8861;52.644;4.734;2024-01-15T04:06:53;3.50;99.90
17489;DHT22;8861;52.644;4.734;2024-01-15T04:09:20;3.50;99.90
17489;DHT22;8861;52.644;4.734;2024-01-15T04:11:47;3.40;99.90
17489;DHT22;8861;52.644;4.734;2024-01-15T04:14:14;3.40;99.90
17489;DHT22;8861;52.644;4.734;2024-01-15T04:16:41;3.30;99.90
17489;DHT22;8861;52.644;4.734;2024-01-15T04:19:08;3.30;99.90
17489;DHT22;8861;52.644;4.734;2024-01-15T04:21:35;3.30;99.90
17489;DHT22;8861;52.644;4.734;2024-01-15T04:24:04;3.10;99.90
17489;DHT22;8861;52.644;4.734;2024-01-15T04:26:31;2.90;99.90
17489;DHT22;8861;52.644;4.734;2024-01-15T04:28:58;2.80;99.90
17489;DHT22;8861;52.644;4.734;2024-01-15T04:31:26;2.70;99.90
17489;DHT22;8861;52.644;4.734;2024-01-15T04:33:53;2.60;99.90
17489;DHT22;8861;52.644;4.734;2024-01-15T04:36:20;2.60;99.90
17489;DHT22;8861;52.644;4.734;2024-01-15T04:38:47;2.60;99.90
17489;DHT22;8861;52.644;4.734;2024-01-15T04:41:16;2.60;99.90
17489;DHT22;8861;52.644;4.734;2024-01-15T04:43:43;2.60;99.90
17489;DHT22;8861;52.644;4.734;2024-01-15T04:46:11;2.60;99.90
17489;DHT22;8861;52.644;4.734;2024-01-15T04:48:38;2.70;99.90
17489;DHT22;8861;52.644;4.734;2024-01-15T04:51:05;2.70;99.90
17489;DHT22;8861;52.644;4.734;2024-01-15T04:53:34;2.70;99.90
17489;DHT22;8861;52.644;4.734;2024-01-15T04:56:01;2.50;99.90
17489;DHT22;8861;52.644;4.734;2024-01-15T04:58:30;2.50;99.90
17489;DHT22;8861;52.644;4.734;2024-01-15T05:00:57;2.40;99.90
17489;DHT22;8861;52.644;4.734;2024-01-15T05:03:24;2.40;99.90
17489;DHT22;8861;52.644;4.734;2024-01-15T05:05:51;2.40;99.90
17489;DHT22;8861;52.644;4.734;2024-01-15T05:08:18;2.40;99.90
17489;DHT22;8861;52.644;4.734;2024-01-15T05:10:45;2.30;99.90
17489;DHT22;8861;52.644;4.734;2024-01-15T05:13:12;2.30;99.90
17489;DHT22;8861;52.644;4.734;2024-01-15T05:15:41;2.30;99.90
17489;DHT22;8861;52.644;4.734;2024-01-15T05:18:09;2.30;99.90
17489;DHT22;8861;52.644;4.734;2024-01-15T05:20:44;2.30;99.90
17489;DHT22;8861;52.644;4.734;2024-01-15T05:23:11;2.30;99.90
17489;DHT22;8861;52.644;4.734;2024-01-15T05:25:38;2.20;99.90
17489;DHT22;8861;52.644;4.734;2024-01-15T05:28:05;2.20;99.90
17489;DHT22;8861;52.644;4.734;2024-01-15T05:30:33;2.20;99.90
17489;DHT22;8861;52.644;4.734;2024-01-15T05:33:01;2.10;99.90
17489;DHT22;8861;52.644;4.734;2024-01-15T05:35:28;2.10;99.90
17489;DHT22;8861;52.644;4.734;2024-01-15T05:37:56;2.10;99.90
17489;DHT22;8861;52.644;4.734;2024-01-15T05:40:23;2.20;99.90
17489;DHT22;8861;52.644;4.734;2024-01-15T05:42:50;2.30;99.90
17489;DHT22;8861;52.644;4.734;2024-01-15T05:45:17;2.40;99.90
17489;DHT22;8861;52.644;4.734;2024-01-15T05:47:44;2.50;99.90
17489;DHT22;8861;52.644;4.734;2024-01-15T05:50:12;2.40;99.90
17489;DHT22;8861;52.644;4.734;2024-01-15T05:52:39;2.40;99.90
17489;DHT22;8861;52.644;4.734;2024-01-15T05:55:07;2.50;99.90
17489;DHT22;8861;52.644;4.734;2024-01-15T05:57:35;2.50;99.90
17489;DHT22;8861;52.644;4.734;2024-01-15T06:00:02;2.50;99.90
17489;DHT22;8861;52.644;4.734;2024-01-15T06:02:29;2.50;99.90
17489;DHT22;8861;52.644;4.734;2024-01-15T06:04:56;2.40;99.90
17489;DHT22;8861;52.644;4.734;2024-01-15T06:07:25;2.40;99.90
17489;DHT22;8861;52.644;4.734;2024-01-15T06:09:52;2.30;99.90
17489;DHT22;8861;52.644;4.734;2024-01-15T06:12:19;2.20;99.90
17489;DHT22;8861;52.644;4.734;2024-01-15T06:14:46;2.20;99.90
17489;DHT22;8861;52.644;4.734;2024-01-15T06:17:13;2.20;99.90
17489;DHT22;8861;52.644;4.734;2024-01-15T06:19:40;2.10;99.90
17489;DHT22;8861;52.644;4.734;2024-01-15T06:22:07;2.10;99.90
17489;DHT22;8861;52.644;4.734;2024-01-15T06:24:35;2.10;99.90
17489;DHT22;8861;52.644;4.734;2024-01-15T06:27:03;2.20;99.90
17489;DHT22;8861;52.644;4.734;2024-01-15T06:29:30;2.20;99.90
17489;DHT22;8861;52.644;4.734;2024-01-15T06:31:57;2.20;99.90
17489;DHT22;8861;52.644;4.734;2024-01-15T06:34:24;2.10;99.90
17489;DHT22;8861;52.644;4.734;2024-01-15T06:36:51;2.10;99.90
17489;DHT22;8861;52.644;4.734;2024-01-15T06:39:18;2.20;99.90
17489;DHT22;8861;52.644;4.734;2024-01-15T06:41:47;2.20;99.90
17489;DHT22;8861;52.644;4.734;2024-01-15T06:44:14;2.20;99.90
17489;DHT22;8861;52.644;4.734;2024-01-15T06:46:42;2.10;99.90
17489;DHT22;8861;52.644;4.734;2024-01-15T06:49:09;2.10;99.90
17489;DHT22;8861;52.644;4.734;2024-01-15T06:51:36;2.00;99.90
17489;DHT22;8861;52.644;4.734;2024-01-15T06:54:04;2.10;99.90
17489;DHT22;8861;52.644;4.734;2024-01-15T06:56:31;2.20;99.90
17489;DHT22;8861;52.644;4.734;2024-01-15T06:58:59;2.30;99.90
17489;DHT22;8861;52.644;4.734;2024-01-15T07:01:26;2.40;99.90
17489;DHT22;8861;52.644;4.734;2024-01-15T07:03:53;2.50;99.90
17489;DHT22;8861;52.644;4.734;2024-01-15T07:06:20;2.50;99.90
17489;DHT22;8861;52.644;4.734;2024-01-15T07:08:48;2.60;99.90
17489;DHT22;8861;52.644;4.734;2024-01-15T07:11:15;2.60;99.90
17489;DHT22;8861;52.644;4.734;2024-01-15T07:13:43;2.60;99.90
17489;DHT22;8861;52.644;4.734;2024-01-15T07:16:11;2.60;99.90
17489;DHT22;8861;52.644;4.734;2024-01-15T07:18:38;2.60;99.90
17489;DHT22;8861;52.644;4.734;2024-01-15T07:21:05;2.60;99.90
17489;DHT22;8861;52.644;4.734;2024-01-15T07:23:32;2.50;99.90
17489;DHT22;8861;52.644;4.734;2024-01-15T07:25:59;2.50;99.90
17489;DHT22;8861;52.644;4.734;2024-01-15T07:28:28;2.50;99.90
17489;DHT22;8861;52.644;4.734;2024-01-15T07:30:56;2.40;99.90
17489;DHT22;8861;52.644;4.734;2024-01-15T07:33:25;2.40;99.90
17489;DHT22;8861;52.644;4.734;2024-01-15T07:35:52;2.40;99.90
17489;DHT22;8861;52.644;4.734;2024-01-15T07:38:20;2.30;99.90
17489;DHT22;8861;52.644;4.734;2024-01-15T07:40:48;2.30;99.90
17489;DHT22;8861;52.644;4.734;2024-01-15T07:43:15;2.30;99.90
17489;DHT22;8861;52.644;4.734;2024-01-15T07:45:42;2.20;99.90
17489;DHT22;8861;52.644;4.734;2024-01-15T07:48:10;2.20;99.90
17489;DHT22;8861;52.644;4.734;2024-01-15T07:50:39;2.20;99.90
17489;DHT22;8861;52.644;4.734;2024-01-15T07:53:06;2.20;99.90
17489;DHT22;8861;52.644;4.734;2024-01-15T07:55:33;2.20;99.90
17489;DHT22;8861;52.644;4.734;2024-01-15T07:58:01;2.30;99.90
17489;DHT22;8861;52.644;4.734;2024-01-15T08:00:28;2.50;99.90
17489;DHT22;8861;52.644;4.734;2024-01-15T08:02:55;2.60;99.90
17489;DHT22;8861;52.644;4.734;2024-01-15T08:05:23;2.60;99.90
17489;DHT22;8861;52.644;4.734;2024-01-15T08:07:51;2.40;99.90
17489;DHT22;8861;52.644;4.734;2024-01-15T08:10:18;2.40;99.90
17489;DHT22;8861;52.644;4.734;2024-01-15T08:12:45;2.30;99.90
17489;DHT22;8861;52.644;4.734;2024-01-15T08:15:13;2.30;99.90
17489;DHT22;8861;52.644;4.734;2024-01-15T08:17:40;2.30;99.90
17489;DHT22;8861;52.644;4.734;2024-01-15T08:20:07;2.30;99.90
17489;DHT22;8861;52.644;4.734;2024-01-15T08:22:36;2.30;99.90
17489;DHT22;8861;52.644;4.734;2024-01-15T08:25:05;2.30;99.90
17489;DHT22;8861;52.644;4.734;2024-01-15T08:27:32;2.30;99.90
17489;DHT22;8861;52.644;4.734;2024-01-15T08:29:59;2.20;99.90
17489;DHT22;8861;52.644;4.734;2024-01-15T08:32:26;2.20;99.90
17489;DHT22;8861;52.644;4.734;2024-01-15T08:34:53;2.20;99.90
17489;DHT22;8861;52.644;4.734;2024-01-15T08:37:20;2.20;99.90
17489;DHT22;8861;52.644;4.734;2024-01-15T08:39:53;2.40;99.90
17489;DHT22;8861;52.644;4.734;2024-01-15T08:42:23;2.50;99.90
17489;DHT22;8861;52.644;4.734;2024-01-15T08:44:50;2.60;99.90
17489;DHT22;8861;52.644;4.734;2024-01-15T08:47:17;2.70;99.90
17489;DHT22;8861;52.644;4.734;2024-01-15T08:49:44;2.70;99.90
17489;DHT22;8861;52.644;4.734;2024-01-15T08:52:11;2.70;99.90
17489;DHT22;8861;52.644;4.734;2024-01-15T08:54:39;2.60;99.90
17489;DHT22;8861;52.644;4.734;2024-01-15T08:57:06;2.50;99.90
17489;DHT22;8861;52.644;4.734;2024-01-15T08:59:35;2.50;99.90
17489;DHT22;8861;52.644;4.734;2024-01-15T09:02:02;2.50;99.90
17489;DHT22;8861;52.644;4.734;2024-01-15T09:04:29;2.50;99.90
17489;DHT22;8861;52.644;4.734;2024-01-15T09:06:56;2.60;99.90
17489;DHT22;8861;52.644;4.734;2024-01-15T09:09:23;2.70;99.90
17489;DHT22;8861;52.644;4.734;2024-01-15T09:11:51;2.90;99.90
17489;DHT22;8861;52.644;4.734;2024-01-15T09:14:18;3.00;99.90
17489;DHT22;8861;52.644;4.734;2024-01-15T09:16:49;3.10;99.90
17489;DHT22;8861;52.644;4.734;2024-01-15T09:19:16;3.10;99.90
17489;DHT22;8861;52.644;4.734;2024-01-15T09:21:43;3.20;99.90
17489;DHT22;8861;52.644;4.734;2024-01-15T09:24:10;3.20;99.90
17489;DHT22;8861;52.644;4.734;2024-01-15T09:26:37;3.30;99.90
17489;DHT22;8861;52.644;4.734;2024-01-15T09:29:04;3.30;99.90
17489;DHT22;8861;52.644;4.734;2024-01-15T09:31:31;3.20;99.90
17489;DHT22;8861;52.644;4.734;2024-01-15T09:34:00;3.20;99.90
17489;DHT22;8861;52.644;4.734;2024-01-15T09:36:27;3.20;99.90
17489;DHT22;8861;52.644;4.734;2024-01-15T09:38:54;3.30;99.90
17489;DHT22;8861;52.644;4.734;2024-01-15T09:41:21;3.30;99.90
17489;DHT22;8861;52.644;4.734;2024-01-15T09:43:49;3.30;99.90
17489;DHT22;8861;52.644;4.734;2024-01-15T09:46:16;3.30;99.90
17489;DHT22;8861;52.644;4.734;2024-01-15T09:48:44;3.20;99.90
17489;DHT22;8861;52.644;4.734;2024-01-15T09:51:12;3.10;99.90
17489;DHT22;8861;52.644;4.734;2024-01-15T09:53:39;2.90;99.90
17489;DHT22;8861;52.644;4.734;2024-01-15T09:56:08;2.80;99.90
17489;DHT22;8861;52.644;4.734;2024-01-15T09:58:38;3.10;99.90
17489;DHT22;8861;52.644;4.734;2024-01-15T10:01:05;3.10;99.90
17489;DHT22;8861;52.644;4.734;2024-01-15T10:03:33;2.90;99.90
17489;DHT22;8861;52.644;4.734;2024-01-15T10:06:00;2.90;99.90
17489;DHT22;8861;52.644;4.734;2024-01-15T10:08:29;2.80;99.90
17489;DHT22;8861;52.644;4.734;2024-01-15T10:10:58;2.80;99.90
17489;DHT22;8861;52.644;4.734;2024-01-15T10:13:25;2.80;99.90
17489;DHT22;8861;52.644;4.734;2024-01-15T10:15:53;2.80;99.90
17489;DHT22;8861;52.644;4.734;2024-01-15T10:18:20;2.70;99.90
17489;DHT22;8861;52.644;4.734;2024-01-15T10:20:47;2.70;99.90
17489;DHT22;8861;52.644;4.734;2024-01-15T10:23:14;2.70;99.90
17489;DHT22;8861;52.644;4.734;2024-01-15T10:25:43;2.70;99.90
17489;DHT22;8861;52.644;4.734;2024-01-15T10:28:10;2.80;99.90
17489;DHT22;8861;52.644;4.734;2024-01-15T10:30:37;2.80;99.90
17489;DHT22;8861;52.644;4.734;2024-01-15T10:33:04;2.90;99.90
17489;DHT22;8861;52.644;4.734;2024-01-15T10:35:33;2.90;99.90
17489;DHT22;8861;52.644;4.734;2024-01-15T10:38:01;3.00;99.90
17489;DHT22;8861;52.644;4.734;2024-01-15T10:40:31;2.90;99.90
17489;DHT22;8861;52.644;4.734;2024-01-15T10:43:00;2.90;99.90
17489;DHT22;8861;52.644;4.734;2024-01-15T10:45:27;2.80;99.90
17489;DHT22;8861;52.644;4.734;2024-01-15T10:47:54;2.80;99.90
17489;DHT22;8861;52.644;4.734;2024-01-15T10:50:24;2.70;99.90
17489;DHT22;8861;52.644;4.734;2024-01-15T10:52:52;2.60;99.90
17489;DHT22;8861;52.644;4.734;2024-01-15T10:55:20;2.50;99.90
17489;DHT22;8861;52.644;4.734;2024-01-15T10:57:48;2.50;99.90
17489;DHT22;8861;52.644;4.734;2024-01-15T11:00:17;2.60;99.90
17489;DHT22;8861;52.644;4.734;2024-01-15T11:02:45;2.70;99.90
17489;DHT22;8861;52.644;4.734;2024-01-15T11:05:12;2.90;99.90
17489;DHT22;8861;52.644;4.734;2024-01-15T11:07:40;3.10;99.90
17489;DHT22;8861;52.644;4.734;2024-01-15T11:10:08;3.20;99.90
17489;DHT22;8861;52.644;4.734;2024-01-15T11:12:55;3.40;99.90
17489;DHT22;8861;52.644;4.734;2024-01-15T11:15:24;3.60;99.90
17489;DHT22;8861;52.644;4.734;2024-01-15T11:18:03;3.80;99.90
17489;DHT22;8861;52.644;4.734;2024-01-15T11:20:31;4.10;99.90
17489;DHT22;8861;52.644;4.734;2024-01-15T11:22:58;4.20;99.90
17489;DHT22;8861;52.644;4.734;2024-01-15T11:25:34;4.30;99.90
17489;DHT22;8861;52.644;4.734;2024-01-15T11:28:03;4.20;99.90
17489;DHT22;8861;52.644;4.734;2024-01-15T11:30:32;4.30;99.90
17489;DHT22;8861;52.644;4.734;2024-01-15T11:33:02;4.20;99.90
17489;DHT22;8861;52.644;4.734;2024-01-15T11:35:47;3.80;99.90
17489;DHT22;8861;52.644;4.734;2024-01-15T11:38:26;3.40;99.90
17489;DHT22;8861;52.644;4.734;2024-01-15T11:40:54;3.20;99.90
17489;DHT22;8861;52.644;4.734;2024-01-15T11:43:21;2.90;99.90
17489;DHT22;8861;52.644;4.734;2024-01-15T11:45:52;2.60;99.90
17489;DHT22;8861;52.644;4.734;2024-01-15T11:48:20;2.40;99.90
17489;DHT22;8861;52.644;4.734;2024-01-15T11:50:50;2.20;99.90
17489;DHT22;8861;52.644;4.734;2024-01-15T11:53:26;2.10;99.90
17489;DHT22;8861;52.644;4.734;2024-01-15T11:55:57;2.10;99.90
17489;DHT22;8861;52.644;4.734;2024-01-15T11:58:25;2.10;99.90
17489;DHT22;8861;52.644;4.734;2024-01-15T12:00:53;2.40;99.90
17489;DHT22;8861;52.644;4.734;2024-01-15T12:03:21;2.70;99.90
17489;DHT22;8861;52.644;4.734;2024-01-15T12:05:48;2.90;99.90
17489;DHT22;8861;52.644;4.734;2024-01-15T12:08:21;3.00;99.90
17489;DHT22;8861;52.644;4.734;2024-01-15T12:10:48;3.00;99.90
17489;DHT22;8861;52.644;4.734;2024-01-15T12:13:15;2.80;99.90
17489;DHT22;8861;52.644;4.734;2024-01-15T12:15:44;2.70;99.90
17489;DHT22;8861;52.644;4.734;2024-01-15T12:18:16;2.60;99.90
17489;DHT22;8861;52.644;4.734;2024-01-15T12:20:44;2.60;99.90
17489;DHT22;8861;52.644;4.734;2024-01-15T12:23:12;2.50;99.90
17489;DHT22;8861;52.644;4.734;2024-01-15T12:25:40;2.50;99.90
17489;DHT22;8861;52.644;4.734;2024-01-15T12:28:08;2.50;99.90
17489;DHT22;8861;52.644;4.734;2024-01-15T12:30:36;2.50;99.90
17489;DHT22;8861;52.644;4.734;2024-01-15T12:33:04;2.50;99.90
17489;DHT22;8861;52.644;4.734;2024-01-15T12:35:33;2.60;99.90
17489;DHT22;8861;52.644;4.734;2024-01-15T12:38:01;2.70;99.90
17489;DHT22;8861;52.644;4.734;2024-01-15T12:40:32;2.90;99.90
17489;DHT22;8861;52.644;4.734;2024-01-15T12:42:59;3.20;99.90
17489;DHT22;8861;52.644;4.734;2024-01-15T12:45:27;3.40;99.90
17489;DHT22;8861;52.644;4.734;2024-01-15T12:47:54;3.60;99.90
17489;DHT22;8861;52.644;4.734;2024-01-15T12:50:24;3.60;99.90
17489;DHT22;8861;52.644;4.734;2024-01-15T12:52:53;3.40;99.90
17489;DHT22;8861;52.644;4.734;2024-01-15T12:55:20;3.40;99.90
17489;DHT22;8861;52.644;4.734;2024-01-15T12:57:47;3.30;99.90
17489;DHT22;8861;52.644;4.734;2024-01-15T13:00:15;3.20;99.90
17489;DHT22;8861;52.644;4.734;2024-01-15T13:02:42;3.00;99.90
17489;DHT22;8861;52.644;4.734;2024-01-15T13:05:10;2.90;99.90
17489;DHT22;8861;52.644;4.734;2024-01-15T13:07:37;2.80;99.90
17489;DHT22;8861;52.644;4.734;2024-01-15T13:10:06;3.00;99.90
17489;DHT22;8861;52.644;4.734;2024-01-15T13:12:34;3.20;99.90
17489;DHT22;8861;52.644;4.734;2024-01-15T13:15:04;3.50;99.90
17489;DHT22;8861;52.644;4.734;2024-01-15T13:17:31;3.60;99.90
17489;DHT22;8861;52.644;4.734;2024-01-15T13:19:58;3.70;99.90
17489;DHT22;8861;52.644;4.734;2024-01-15T13:22:25;3.60;99.90
17489;DHT22;8861;52.644;4.734;2024-01-15T13:24:57;3.60;99.90
17489;DHT22;8861;52.644;4.734;2024-01-15T13:27:26;3.60;99.90
17489;DHT22;8861;52.644;4.734;2024-01-15T13:29:53;3.60;99.90
17489;DHT22;8861;52.644;4.734;2024-01-15T13:32:24;3.70;99.90
17489;DHT22;8861;52.644;4.734;2024-01-15T13:34:52;3.80;99.90
17489;DHT22;8861;52.644;4.734;2024-01-15T13:37:19;3.90;99.90
17489;DHT22;8861;52.644;4.734;2024-01-15T13:39:46;3.80;99.90
17489;DHT22;8861;52.644;4.734;2024-01-15T13:42:13;3.80;99.90
17489;DHT22;8861;52.644;4.734;2024-01-15T13:44:42;3.80;99.90
17489;DHT22;8861;52.644;4.734;2024-01-15T13:47:09;3.60;99.90
17489;DHT22;8861;52.644;4.734;2024-01-15T13:49:36;3.50;99.90
17489;DHT22;8861;52.644;4.734;2024-01-15T13:52:04;3.50;99.90
17489;DHT22;8861;52.644;4.734;2024-01-15T13:54:31;3.60;99.90
17489;DHT22;8861;52.644;4.734;2024-01-15T13:56:58;3.70;99.90
17489;DHT22;8861;52.644;4.734;2024-01-15T13:59:25;3.70;99.90
17489;DHT22;8861;52.644;4.734;2024-01-15T14:01:54;3.70;99.90
17489;DHT22;8861;52.644;4.734;2024-01-15T14:04:21;3.70;99.90
17489;DHT22;8861;52.644;4.734;2024-01-15T14:06:48;3.70;99.90
17489;DHT22;8861;52.644;4.734;2024-01-15T14:09:15;3.70;99.90
17489;DHT22;8861;52.644;4.734;2024-01-15T14:11:42;3.70;99.90
17489;DHT22;8861;52.644;4.734;2024-01-15T14:14:08;3.70;99.90
17489;DHT22;8861;52.644;4.734;2024-01-15T14:16:35;3.70;99.90
17489;DHT22;8861;52.644;4.734;2024-01-15T14:19:04;3.80;99.90
17489;DHT22;8861;52.644;4.734;2024-01-15T14:21:35;4.00;99.90
17489;DHT22;8861;52.644;4.734;2024-01-15T14:24:02;4.20;99.90
17489;DHT22;8861;52.644;4.734;2024-01-15T14:26:29;4.30;99.90
17489;DHT22;8861;52.644;4.734;2024-01-15T14:28:56;4.50;99.90
17489;DHT22;8861;52.644;4.734;2024-01-15T14:31:24;4.50;99.90
17489;DHT22;8861;52.644;4.734;2024-01-15T14:33:51;4.30;99.90
17489;DHT22;8861;52.644;4.734;2024-01-15T14:36:21;4.00;99.90
17489;DHT22;8861;52.644;4.734;2024-01-15T14:38:49;3.60;99.90
17489;DHT22;8861;52.644;4.734;2024-01-15T14:41:16;3.20;99.90
17489;DHT22;8861;52.644;4.734;2024-01-15T14:43:43;3.00;99.90
17489;DHT22;8861;52.644;4.734;2024-01-15T14:46:11;2.80;99.90
17489;DHT22;8861;52.644;4.734;2024-01-15T14:48:38;2.80;99.90
17489;DHT22;8861;52.644;4.734;2024-01-15T14:51:05;2.70;99.90
17489;DHT22;8861;52.644;4.734;2024-01-15T14:53:33;2.60;99.90
17489;DHT22;8861;52.644;4.734;2024-01-15T14:56:01;2.50;99.90
17489;DHT22;8861;52.644;4.734;2024-01-15T14:58:28;2.50;99.90
17489;DHT22;8861;52.644;4.734;2024-01-15T15:00:55;2.50;99.90
17489;DHT22;8861;52.644;4.734;2024-01-15T15:03:22;2.50;99.90
17489;DHT22;8861;52.644;4.734;2024-01-15T15:05:49;2.40;99.90
17489;DHT22;8861;52.644;4.734;2024-01-15T15:08:16;2.40;99.90
17489;DHT22;8861;52.644;4.734;2024-01-15T15:10:45;2.40;99.90
17489;DHT22;8861;52.644;4.734;2024-01-15T15:13:12;2.30;99.90
17489;DHT22;8861;52.644;4.734;2024-01-15T15:15:39;2.40;99.90
17489;DHT22;8861;52.644;4.734;2024-01-15T15:18:06;2.40;99.90
17489;DHT22;8861;52.644;4.734;2024-01-15T15:20:33;2.30;99.90
17489;DHT22;8861;52.644;4.734;2024-01-15T15:23:00;2.30;99.90
17489;DHT22;8861;52.644;4.734;2024-01-15T15:25:28;2.30;99.90
17489;DHT22;8861;52.644;4.734;2024-01-15T15:27:56;2.30;99.90
17489;DHT22;8861;52.644;4.734;2024-01-15T15:30:23;2.30;99.90
17489;DHT22;8861;52.644;4.734;2024-01-15T15:32:51;2.30;99.90
17489;DHT22;8861;52.644;4.734;2024-01-15T15:35:18;2.30;99.90
17489;DHT22;8861;52.644;4.734;2024-01-15T15:37:45;2.30;99.90
17489;DHT22;8861;52.644;4.734;2024-01-15T15:40:12;2.30;99.90
17489;DHT22;8861;52.644;4.734;2024-01-15T15:42:39;2.30;99.90
17489;DHT22;8861;52.644;4.734;2024-01-15T15:45:09;2.30;99.90
17489;DHT22;8861;52.644;4.734;2024-01-15T15:47:36;2.30;99.90
17489;DHT22;8861;52.644;4.734;2024-01-15T15:50:04;2.30;99.90
17489;DHT22;8861;52.644;4.734;2024-01-15T15:52:31;2.30;99.90
17489;DHT22;8861;52.644;4.734;2024-01-15T15:54:58;2.30;99.90
17489;DHT22;8861;52.644;4.734;2024-01-15T15:57:25;2.30;99.90
17489;DHT22;8861;52.644;4.734;2024-01-15T15:59:53;2.40;99.90
17489;DHT22;8861;52.644;4.734;2024-01-15T16:02:22;2.40;99.90
17489;DHT22;8861;52.644;4.734;2024-01-15T16:04:49;2.50;99.90